createdAt,value
2024-05-09T00:00:01.417Z,1.00
2024-05-09T00:01:08.288Z,1.00
2024-05-09T00:01:43.938Z,1.00
2024-05-09T00:02:16.967Z,1.00
2024-05-09T00:02:49.109Z,1.00
2024-05-09T00:03:23.225Z,1.00
2024-05-09T00:03:55.466Z,1.00
2024-05-09T00:04:27.501Z,1.00
2024-05-09T00:04:59.540Z,1.00
2024-05-09T00:05:37.455Z,1.00
2024-05-09T00:06:12.589Z,1.00
2024-05-09T00:06:45.915Z,1.00
2024-05-09T00:07:17.695Z,1.00
2024-05-09T00:07:49.555Z,1.00
2024-05-09T00:08:21.674Z,1.00
2024-05-09T00:08:53.446Z,1.00
2024-05-09T00:09:25.634Z,1.00
2024-05-09T00:09:57.468Z,1.00
2024-05-09T00:10:35.816Z,1.00
2024-05-09T00:11:13.405Z,1.00
2024-05-09T00:11:45.423Z,1.00
2024-05-09T00:12:17.461Z,1.00
2024-05-09T00:12:49.798Z,1.00
2024-05-09T00:13:21.635Z,1.00
2024-05-09T00:13:53.729Z,1.00
2024-05-09T00:14:25.801Z,1.00
2024-05-09T00:14:57.947Z,1.00
2024-05-09T00:15:30.375Z,1.00
2024-05-09T00:16:02.209Z,1.00
2024-05-09T00:16:33.991Z,1.00
2024-05-09T00:17:06.820Z,1.00
2024-05-09T00:17:38.966Z,1.00
2024-05-09T00:18:11.192Z,1.00
2024-05-09T00:18:43.394Z,1.00
2024-05-09T00:19:18.073Z,1.00
2024-05-09T00:19:50.109Z,1.00
2024-05-09T00:20:28.125Z,1.00
2024-05-09T00:21:06.644Z,1.00
2024-05-09T00:21:45.958Z,1.00
2024-05-09T00:22:18.736Z,1.00
2024-05-09T00:22:50.597Z,1.00
2024-05-09T00:23:22.506Z,1.00
2024-05-09T00:23:55.746Z,1.00
2024-05-09T00:24:28.628Z,1.00
2024-05-09T00:25:00.416Z,1.00
2024-05-09T00:25:32.221Z,1.00
2024-05-09T00:26:05.474Z,1.00
2024-05-09T00:26:37.422Z,1.00
2024-05-09T00:27:11.249Z,1.00
2024-05-09T00:27:44.819Z,1.00
2024-05-09T00:28:16.642Z,1.00
2024-05-09T00:28:48.485Z,1.00
2024-05-09T00:29:20.778Z,1.00
2024-05-09T00:29:53.257Z,1.00
2024-05-09T00:30:33.401Z,1.00
2024-05-09T00:31:07.795Z,1.00
2024-05-09T00:31:39.986Z,1.00
2024-05-09T00:32:11.923Z,1.00
2024-05-09T00:32:47.757Z,1.00
2024-05-09T00:33:21.517Z,1.00
2024-05-09T00:33:53.528Z,1.00
2024-05-09T00:34:25.420Z,1.00
2024-05-09T00:34:57.332Z,1.00
2024-05-09T00:35:29.203Z,1.00
2024-05-09T00:36:01.055Z,1.00
2024-05-09T00:36:32.864Z,1.00
2024-05-09T00:37:04.651Z,1.00
2024-05-09T00:37:36.986Z,1.00
2024-05-09T00:38:09.630Z,1.00
2024-05-09T00:38:41.475Z,1.00
2024-05-09T00:39:13.587Z,1.00
2024-05-09T00:39:45.448Z,1.00
2024-05-09T00:40:26.515Z,1.00
2024-05-09T00:41:05.380Z,1.00
2024-05-09T00:41:37.389Z,1.00
2024-05-09T00:42:09.292Z,1.00
2024-05-09T00:42:41.180Z,1.00
2024-05-09T00:43:15.016Z,1.00
2024-05-09T00:43:47.359Z,1.00
2024-05-09T00:44:19.220Z,1.00
2024-05-09T00:44:50.994Z,1.00
2024-05-09T00:45:23.017Z,1.00
2024-05-09T00:45:56.906Z,1.00
2024-05-09T00:46:28.949Z,1.00
2024-05-09T00:47:00.787Z,1.00
2024-05-09T00:47:33.382Z,1.00
2024-05-09T00:48:08.530Z,1.00
2024-05-09T00:48:41.829Z,1.00
2024-05-09T00:49:13.918Z,1.00
2024-05-09T00:49:45.847Z,1.00
2024-05-09T00:50:23.023Z,1.00
2024-05-09T00:51:02.408Z,1.00
2024-05-09T00:51:34.719Z,1.00
2024-05-09T00:52:06.732Z,1.00
2024-05-09T00:52:40.058Z,1.00
2024-05-09T00:53:15.753Z,1.00
2024-05-09T00:53:48.285Z,1.00
2024-05-09T00:54:21.074Z,1.00
2024-05-09T00:54:55.662Z,1.00
2024-05-09T00:55:27.709Z,1.00
2024-05-09T00:56:00.431Z,1.00
2024-05-09T00:56:34.562Z,1.00
2024-05-09T00:57:06.648Z,1.00
2024-05-09T00:57:38.790Z,1.00
2024-05-09T00:58:15.418Z,1.00
2024-05-09T00:58:48.689Z,1.00
2024-05-09T00:59:22.792Z,1.00
2024-05-09T00:59:55.745Z,1.00
2024-05-09T01:00:38.221Z,1.00
2024-05-09T01:01:12.326Z,1.00
2024-05-09T01:01:44.966Z,1.00
2024-05-09T01:02:17.995Z,1.00
2024-05-09T01:02:50.165Z,1.00
2024-05-09T01:03:23.017Z,1.00
2024-05-09T01:03:55.132Z,1.00
2024-05-09T01:04:27.360Z,1.00
2024-05-09T01:04:59.499Z,1.00
2024-05-09T01:05:31.424Z,1.00
2024-05-09T01:06:03.389Z,1.00
2024-05-09T01:06:35.619Z,1.00
2024-05-09T01:07:09.898Z,1.00
2024-05-09T01:07:42.471Z,1.00
2024-05-09T01:08:14.369Z,1.00
2024-05-09T01:08:46.617Z,1.00
2024-05-09T01:09:18.432Z,1.00
2024-05-09T01:09:50.236Z,1.00
2024-05-09T01:10:28.287Z,1.00
2024-05-09T01:11:07.110Z,1.00
2024-05-09T01:11:39.932Z,1.00
2024-05-09T01:12:12.608Z,1.00
2024-05-09T01:12:45.584Z,1.00
2024-05-09T01:13:20.791Z,1.00
2024-05-09T01:13:52.659Z,1.00
2024-05-09T01:14:24.752Z,1.00
2024-05-09T01:14:56.681Z,1.00
2024-05-09T01:15:28.915Z,1.00
2024-05-09T01:16:01.847Z,1.00
2024-05-09T01:16:33.765Z,1.00
2024-05-09T01:17:08.602Z,1.00
2024-05-09T01:17:40.954Z,1.00
2024-05-09T01:18:14.016Z,1.00
2024-05-09T01:18:46.179Z,1.00
2024-05-09T01:19:22.684Z,1.00
2024-05-09T01:19:56.436Z,1.00
2024-05-09T01:20:37.509Z,1.00
2024-05-09T01:21:14.403Z,1.00
2024-05-09T01:21:46.256Z,1.00
2024-05-09T01:22:24.941Z,1.00
2024-05-09T01:22:57.325Z,1.00
2024-05-09T01:23:31.923Z,1.00
2024-05-09T01:24:05.016Z,1.00
2024-05-09T01:24:37.126Z,1.00
2024-05-09T01:25:09.159Z,1.00
2024-05-09T01:25:45.979Z,1.00
2024-05-09T01:26:18.451Z,1.00
2024-05-09T01:26:50.664Z,1.00
2024-05-09T01:27:22.976Z,1.00
2024-05-09T01:27:54.714Z,1.00
2024-05-09T01:28:39.122Z,1.00
2024-05-09T01:29:11.046Z,1.00
2024-05-09T01:29:43.003Z,1.00
2024-05-09T01:30:20.813Z,1.00
2024-05-09T01:30:53.123Z,1.00
2024-05-09T01:31:25.784Z,1.00
2024-05-09T01:31:59.312Z,1.00
2024-05-09T01:32:31.635Z,1.00
2024-05-09T01:33:07.632Z,1.00
2024-05-09T01:33:42.491Z,1.00
2024-05-09T01:34:47.517Z,1.00
2024-05-09T01:35:22.424Z,1.00
2024-05-09T01:35:54.289Z,1.00
2024-05-09T01:36:26.526Z,1.00
2024-05-09T01:36:58.254Z,1.00
2024-05-09T01:37:30.426Z,1.00
2024-05-09T01:38:02.678Z,1.00
2024-05-09T01:38:34.768Z,1.00
2024-05-09T01:39:06.545Z,1.00
2024-05-09T01:39:38.532Z,1.00
2024-05-09T01:40:14.993Z,1.00
2024-05-09T01:40:51.923Z,1.00
2024-05-09T01:41:23.855Z,1.00
2024-05-09T01:41:55.867Z,1.00
2024-05-09T01:42:27.789Z,1.00
2024-05-09T01:42:59.930Z,1.00
2024-05-09T01:43:33.382Z,1.00
2024-05-09T01:44:05.213Z,1.00
2024-05-09T01:44:37.742Z,1.00
2024-05-09T01:45:12.435Z,1.00
2024-05-09T01:45:44.213Z,1.00
2024-05-09T01:46:16.112Z,1.00
2024-05-09T01:46:49.070Z,1.00
2024-05-09T01:47:21.506Z,1.00
2024-05-09T01:47:53.834Z,1.00
2024-05-09T01:48:26.591Z,1.00
2024-05-09T01:48:59.487Z,1.00
2024-05-09T01:49:35.759Z,1.00
2024-05-09T01:50:10.710Z,1.00
2024-05-09T01:50:43.464Z,1.00
2024-05-09T01:51:15.618Z,1.00
2024-05-09T01:51:47.462Z,1.00
2024-05-09T01:52:19.266Z,1.00
2024-05-09T01:52:51.729Z,1.00
2024-05-09T01:53:25.071Z,1.00
2024-05-09T01:53:58.055Z,1.00
2024-05-09T01:54:31.345Z,1.00
2024-05-09T01:55:06.398Z,1.00
2024-05-09T01:55:39.064Z,1.00
2024-05-09T01:56:14.473Z,1.00
2024-05-09T01:56:46.346Z,1.00
2024-05-09T01:57:19.904Z,1.00
2024-05-09T01:57:51.640Z,1.00
2024-05-09T01:58:23.487Z,1.00
2024-05-09T01:58:55.332Z,1.00
2024-05-09T01:59:27.384Z,1.00
2024-05-09T02:00:00.798Z,1.00
2024-05-09T02:00:38.585Z,1.00
2024-05-09T02:01:13.450Z,1.00
2024-05-09T02:01:56.404Z,1.00
2024-05-09T02:02:29.629Z,1.00
2024-05-09T02:03:01.755Z,1.00
2024-05-09T02:03:34.610Z,1.00
2024-05-09T02:04:06.879Z,1.00
2024-05-09T02:04:40.349Z,1.00
2024-05-09T02:05:14.152Z,1.00
2024-05-09T02:05:48.671Z,1.00
2024-05-09T02:06:20.518Z,1.00
2024-05-09T02:06:52.968Z,1.00
2024-05-09T02:07:25.524Z,1.00
2024-05-09T02:07:57.430Z,1.00
2024-05-09T02:08:29.775Z,1.00
2024-05-09T02:09:01.534Z,1.00
2024-05-09T02:09:33.373Z,1.00
2024-05-09T02:10:13.805Z,1.00
2024-05-09T02:10:49.356Z,1.00
2024-05-09T02:11:23.870Z,1.00
2024-05-09T02:11:56.293Z,1.00
2024-05-09T02:12:30.138Z,1.00
2024-05-09T02:13:01.907Z,1.00
2024-05-09T02:13:33.733Z,1.00
2024-05-09T02:14:06.925Z,1.00
2024-05-09T02:14:39.716Z,1.00
2024-05-09T02:15:12.037Z,1.00
2024-05-09T02:15:43.932Z,1.00
2024-05-09T02:16:15.697Z,1.00
2024-05-09T02:16:49.932Z,1.00
2024-05-09T02:17:21.797Z,1.00
2024-05-09T02:17:54.334Z,1.00
2024-05-09T02:18:26.374Z,1.00
2024-05-09T02:18:58.398Z,1.00
2024-05-09T02:19:30.547Z,1.00
2024-05-09T02:20:06.035Z,1.00
2024-05-09T02:20:39.711Z,1.00
2024-05-09T02:21:11.603Z,1.00
2024-05-09T02:21:43.433Z,1.00
2024-05-09T02:22:15.263Z,1.00
2024-05-09T02:22:48.040Z,1.00
2024-05-09T02:23:19.853Z,1.00
2024-05-09T02:23:51.641Z,1.00
2024-05-09T02:24:23.836Z,1.00
2024-05-09T02:24:55.644Z,1.00
2024-05-09T02:25:27.813Z,1.00
2024-05-09T02:25:59.631Z,1.00
2024-05-09T02:26:31.502Z,1.00
2024-05-09T02:27:04.512Z,1.00
2024-05-09T02:27:36.259Z,1.00
2024-05-09T02:28:08.067Z,1.00
2024-05-09T02:28:41.336Z,1.00
2024-05-09T02:29:13.476Z,1.00
2024-05-09T02:29:45.459Z,1.00
2024-05-09T02:30:25.894Z,1.00
2024-05-09T02:31:10.734Z,1.00
2024-05-09T02:31:43.975Z,1.00
2024-05-09T02:32:16.765Z,1.00
2024-05-09T02:32:49.409Z,1.00
2024-05-09T02:33:21.762Z,1.00
2024-05-09T02:33:54.226Z,1.00
2024-05-09T02:34:46.894Z,1.00
2024-05-09T02:35:19.025Z,1.00
2024-05-09T02:35:50.825Z,1.00
2024-05-09T02:36:22.956Z,1.00
2024-05-09T02:36:56.625Z,1.00
2024-05-09T02:37:28.777Z,1.00
2024-05-09T02:38:00.762Z,1.00
2024-05-09T02:38:32.817Z,1.00
2024-05-09T02:39:06.771Z,1.00
2024-05-09T02:39:38.540Z,1.00
2024-05-09T02:40:14.705Z,1.00
2024-05-09T02:40:49.882Z,1.00
2024-05-09T02:41:21.695Z,1.00
2024-05-09T02:41:53.570Z,1.00
2024-05-09T02:42:25.355Z,1.00
2024-05-09T02:42:57.352Z,1.00
2024-05-09T02:43:29.168Z,1.00
2024-05-09T02:44:00.985Z,1.00
2024-05-09T02:44:32.793Z,1.00
2024-05-09T02:45:04.946Z,1.00
2024-05-09T02:45:36.798Z,1.00
2024-05-09T02:46:08.596Z,1.00
2024-05-09T02:46:41.387Z,1.00
2024-05-09T02:47:13.280Z,1.00
2024-05-09T02:47:46.559Z,1.00
2024-05-09T02:48:18.611Z,1.00
2024-05-09T02:48:50.570Z,1.00
2024-05-09T02:49:23.725Z,1.00
2024-05-09T02:49:55.656Z,1.00
2024-05-09T02:50:34.475Z,1.00
2024-05-09T02:51:10.642Z,1.00
2024-05-09T02:51:43.536Z,1.00
2024-05-09T02:52:18.489Z,1.67
2024-05-09T02:52:50.556Z,2.00
2024-05-09T02:53:22.789Z,2.00
2024-05-09T02:53:54.703Z,2.00
2024-05-09T02:54:26.833Z,2.00
2024-05-09T02:55:01.393Z,2.00
2024-05-09T02:55:34.361Z,2.00
2024-05-09T02:56:06.585Z,2.00
2024-05-09T02:56:41.193Z,2.00
2024-05-09T02:57:13.011Z,2.00
2024-05-09T02:57:44.769Z,2.00
2024-05-09T02:58:16.873Z,2.00
2024-05-09T02:58:48.952Z,2.00
2024-05-09T02:59:21.468Z,2.00
2024-05-09T02:59:53.475Z,2.00
2024-05-09T03:00:29.976Z,2.00
2024-05-09T03:01:09.717Z,2.00
2024-05-09T03:01:42.355Z,2.00
2024-05-09T03:02:14.420Z,2.00
2024-05-09T03:02:46.331Z,2.00
2024-05-09T03:03:18.479Z,2.00
2024-05-09T03:03:51.641Z,2.00
2024-05-09T03:04:23.874Z,2.00
2024-05-09T03:04:56.081Z,2.00
2024-05-09T03:05:28.226Z,2.00
2024-05-09T03:06:01.394Z,2.00
2024-05-09T03:06:33.491Z,2.00
2024-05-09T03:07:05.758Z,2.00
2024-05-09T03:07:44.000Z,2.00
2024-05-09T03:08:15.854Z,2.00
2024-05-09T03:08:47.740Z,2.00
2024-05-09T03:09:20.514Z,2.00
2024-05-09T03:09:52.500Z,2.00
2024-05-09T03:10:28.552Z,2.00
2024-05-09T03:11:01.243Z,2.00
2024-05-09T03:11:33.161Z,2.00
2024-05-09T03:12:06.217Z,2.67
2024-05-09T03:12:39.284Z,3.00
2024-05-09T03:13:14.563Z,3.00
2024-05-09T03:13:52.972Z,3.00
2024-05-09T03:14:25.228Z,3.00
2024-05-09T03:14:57.074Z,3.00
2024-05-09T03:15:31.616Z,3.00
2024-05-09T03:16:04.214Z,3.00
2024-05-09T03:16:38.720Z,3.00
2024-05-09T03:17:10.703Z,3.00
2024-05-09T03:17:42.628Z,3.00
2024-05-09T03:18:16.237Z,3.00
2024-05-09T03:18:48.636Z,3.00
2024-05-09T03:19:20.773Z,3.00
2024-05-09T03:19:52.682Z,3.00
2024-05-09T03:20:32.261Z,3.00
2024-05-09T03:21:07.514Z,3.00
2024-05-09T03:21:40.734Z,3.00
2024-05-09T03:22:12.513Z,3.00
2024-05-09T03:22:44.334Z,3.00
2024-05-09T03:23:16.459Z,3.00
2024-05-09T03:23:48.754Z,3.00
2024-05-09T03:24:20.648Z,3.00
2024-05-09T03:24:53.081Z,3.00
2024-05-09T03:25:25.166Z,3.00
2024-05-09T03:25:59.691Z,3.00
2024-05-09T03:26:31.693Z,3.00
2024-05-09T03:27:04.235Z,3.00
2024-05-09T03:27:40.237Z,3.00
2024-05-09T03:28:13.697Z,3.00
2024-05-09T03:28:45.828Z,3.00
2024-05-09T03:29:17.791Z,3.00
2024-05-09T03:29:50.203Z,3.00
2024-05-09T03:30:35.690Z,3.00
2024-05-09T03:31:13.054Z,3.00
2024-05-09T03:31:45.244Z,3.00
2024-05-09T03:32:18.617Z,3.00
2024-05-09T03:32:50.523Z,3.00
2024-05-09T03:33:22.914Z,3.00
2024-05-09T03:33:55.132Z,4.00
2024-05-09T03:34:27.001Z,4.00
2024-05-09T03:34:58.996Z,4.00
2024-05-09T03:35:31.097Z,4.00
2024-05-09T03:36:06.800Z,4.00
2024-05-09T03:36:44.476Z,4.00
2024-05-09T03:37:16.197Z,4.00
2024-05-09T03:37:48.256Z,4.00
2024-05-09T03:38:20.055Z,4.00
2024-05-09T03:38:52.650Z,4.00
2024-05-09T03:39:24.449Z,4.00
2024-05-09T03:40:23.358Z,4.00
2024-05-09T03:40:59.225Z,4.00
2024-05-09T03:41:31.119Z,4.00
2024-05-09T03:42:06.152Z,4.00
2024-05-09T03:42:40.550Z,4.00
2024-05-09T03:43:14.254Z,4.00
2024-05-09T03:43:46.315Z,4.00
2024-05-09T03:44:18.181Z,4.00
2024-05-09T03:44:51.418Z,4.00
2024-05-09T03:45:23.226Z,4.00
2024-05-09T03:45:55.244Z,4.00
2024-05-09T03:46:47.789Z,4.00
2024-05-09T03:47:19.730Z,4.00
2024-05-09T03:47:52.870Z,4.00
2024-05-09T03:48:25.161Z,4.00
2024-05-09T03:48:57.382Z,4.00
2024-05-09T03:49:29.245Z,4.00
2024-05-09T03:50:01.989Z,4.00
2024-05-09T03:50:35.966Z,4.00
2024-05-09T03:51:08.785Z,4.00
2024-05-09T03:51:40.746Z,4.00
2024-05-09T03:52:12.770Z,4.00
2024-05-09T03:52:45.672Z,4.00
2024-05-09T03:53:17.722Z,4.00
2024-05-09T03:53:49.726Z,4.00
2024-05-09T03:54:23.590Z,4.00
2024-05-09T03:54:55.555Z,4.00
2024-05-09T03:55:28.201Z,4.00
2024-05-09T03:56:00.110Z,4.00
2024-05-09T03:56:32.265Z,4.00
2024-05-09T03:57:04.250Z,4.00
2024-05-09T03:57:36.880Z,4.00
2024-05-09T03:58:08.758Z,4.00
2024-05-09T03:58:41.039Z,4.00
2024-05-09T03:59:13.067Z,4.00
2024-05-09T03:59:44.965Z,4.00
2024-05-09T04:00:22.558Z,4.00
2024-05-09T04:01:03.733Z,4.00
2024-05-09T04:01:35.636Z,4.00
2024-05-09T04:02:08.080Z,4.00
2024-05-09T04:02:46.361Z,4.00
2024-05-09T04:03:19.327Z,4.00
2024-05-09T04:03:51.546Z,4.00
2024-05-09T04:04:23.776Z,4.00
2024-05-09T04:04:55.748Z,4.00
2024-05-09T04:05:29.520Z,4.00
2024-05-09T04:06:03.502Z,4.00
2024-05-09T04:06:35.332Z,4.00
2024-05-09T04:07:07.330Z,4.00
2024-05-09T04:07:43.909Z,4.00
2024-05-09T04:08:16.143Z,4.00
2024-05-09T04:08:48.022Z,4.00
2024-05-09T04:09:19.797Z,4.00
2024-05-09T04:09:53.160Z,4.00
2024-05-09T04:10:33.334Z,4.00
2024-05-09T04:11:07.068Z,4.00
2024-05-09T04:11:39.342Z,4.00
2024-05-09T04:12:11.279Z,4.00
2024-05-09T04:12:43.413Z,4.00
2024-05-09T04:13:15.167Z,4.00
2024-05-09T04:13:47.710Z,4.00
2024-05-09T04:14:19.590Z,4.00
2024-05-09T04:14:51.394Z,4.00
2024-05-09T04:15:23.274Z,4.00
2024-05-09T04:15:55.101Z,4.00
2024-05-09T04:16:27.229Z,4.00
2024-05-09T04:16:59.671Z,4.00
2024-05-09T04:17:31.636Z,4.00
2024-05-09T04:18:03.745Z,4.00
2024-05-09T04:18:38.264Z,4.00
2024-05-09T04:19:10.437Z,4.00
2024-05-09T04:19:42.292Z,4.00
2024-05-09T04:20:24.282Z,4.00
2024-05-09T04:21:05.770Z,4.00
2024-05-09T04:21:37.977Z,4.00
2024-05-09T04:22:09.967Z,4.00
2024-05-09T04:22:41.778Z,4.00
2024-05-09T04:23:14.579Z,4.00
2024-05-09T04:23:53.185Z,4.00
2024-05-09T04:24:26.235Z,4.00
2024-05-09T04:24:58.007Z,4.00
2024-05-09T04:25:30.997Z,4.00
2024-05-09T04:26:04.404Z,4.00
2024-05-09T04:26:36.288Z,4.00
2024-05-09T04:27:08.432Z,4.00
2024-05-09T04:27:40.230Z,4.00
2024-05-09T04:28:12.722Z,4.00
2024-05-09T04:28:44.666Z,4.00
2024-05-09T04:29:17.611Z,4.00
2024-05-09T04:29:49.924Z,4.00
2024-05-09T04:30:33.632Z,4.00
2024-05-09T04:31:10.147Z,4.00
2024-05-09T04:31:42.097Z,4.00
2024-05-09T04:32:14.168Z,4.00
2024-05-09T04:32:46.289Z,4.00
2024-05-09T04:33:19.497Z,4.00
2024-05-09T04:33:51.710Z,4.00
2024-05-09T04:34:24.341Z,4.00
2024-05-09T04:34:56.208Z,4.00
2024-05-09T04:35:28.544Z,4.00
2024-05-09T04:36:00.983Z,4.00
2024-05-09T04:36:32.860Z,4.00
2024-05-09T04:37:05.957Z,4.00
2024-05-09T04:37:37.770Z,4.00
2024-05-09T04:38:10.195Z,4.00
2024-05-09T04:38:42.054Z,4.00
2024-05-09T04:39:15.867Z,4.00
2024-05-09T04:39:49.092Z,4.00
2024-05-09T04:40:28.321Z,4.00
2024-05-09T04:41:05.681Z,4.00
2024-05-09T04:41:38.496Z,4.00
2024-05-09T04:42:10.307Z,4.00
2024-05-09T04:42:42.079Z,4.00
2024-05-09T04:43:17.672Z,4.00
2024-05-09T04:43:49.826Z,4.00
2024-05-09T04:44:24.845Z,4.00
2024-05-09T04:44:58.717Z,4.00
2024-05-09T04:45:31.958Z,4.00
2024-05-09T04:46:04.436Z,4.00
2024-05-09T04:46:36.228Z,4.00
2024-05-09T04:47:08.128Z,4.00
2024-05-09T04:47:41.448Z,4.00
2024-05-09T04:48:13.932Z,4.00
2024-05-09T04:48:47.719Z,4.00
2024-05-09T04:49:19.808Z,4.00
2024-05-09T04:49:51.968Z,4.00
2024-05-09T04:50:30.423Z,4.00
2024-05-09T04:51:15.028Z,4.00
2024-05-09T04:51:47.152Z,4.00
2024-05-09T04:52:18.941Z,4.00
2024-05-09T04:52:51.527Z,4.00
2024-05-09T04:53:23.499Z,4.00
2024-05-09T04:53:55.334Z,4.00
2024-05-09T04:54:34.147Z,4.00
2024-05-09T04:55:08.261Z,4.00
2024-05-09T04:55:40.686Z,4.00
2024-05-09T04:56:12.691Z,4.00
2024-05-09T04:56:44.556Z,4.00
2024-05-09T04:57:17.031Z,4.00
2024-05-09T04:58:09.291Z,4.00
2024-05-09T04:58:41.230Z,4.00
2024-05-09T04:59:13.323Z,4.00
2024-05-09T04:59:45.932Z,4.00
2024-05-09T05:00:25.722Z,4.00
2024-05-09T05:01:03.952Z,4.00
2024-05-09T05:01:36.279Z,4.00
2024-05-09T05:02:08.214Z,4.00
2024-05-09T05:02:42.321Z,4.00
2024-05-09T05:03:16.220Z,4.00
2024-05-09T05:03:49.067Z,4.00
2024-05-09T05:04:21.235Z,4.00
2024-05-09T05:04:54.793Z,4.00
2024-05-09T05:05:27.185Z,4.00
2024-05-09T05:05:59.021Z,4.00
2024-05-09T05:06:30.826Z,4.00
2024-05-09T05:07:03.087Z,4.00
2024-05-09T05:07:35.043Z,4.67
2024-05-09T05:08:11.289Z,5.00
2024-05-09T05:08:44.317Z,5.00
2024-05-09T05:09:16.212Z,5.00
2024-05-09T05:09:48.997Z,5.00
2024-05-09T05:10:25.541Z,5.00
2024-05-09T05:11:01.470Z,5.00
2024-05-09T05:11:33.399Z,5.00
2024-05-09T05:12:25.479Z,5.00
2024-05-09T05:13:19.000Z,5.00
2024-05-09T05:13:51.541Z,5.00
2024-05-09T05:14:23.687Z,5.00
2024-05-09T05:14:55.962Z,5.00
2024-05-09T05:15:31.962Z,5.00
2024-05-09T05:16:05.156Z,5.00
2024-05-09T05:16:38.472Z,5.00
2024-05-09T05:17:10.633Z,5.00
2024-05-09T05:17:42.973Z,5.00
2024-05-09T05:18:16.811Z,5.00
2024-05-09T05:18:49.097Z,5.00
2024-05-09T05:19:20.988Z,5.00
2024-05-09T05:19:53.631Z,5.00
2024-05-09T05:20:32.587Z,5.00
2024-05-09T05:21:06.166Z,5.00
2024-05-09T05:21:37.922Z,5.00
2024-05-09T05:22:11.007Z,5.00
2024-05-09T05:22:44.750Z,5.00
2024-05-09T05:23:19.159Z,5.00
2024-05-09T05:23:52.190Z,5.00
2024-05-09T05:24:24.341Z,5.00
2024-05-09T05:24:56.403Z,5.00
2024-05-09T05:25:28.376Z,5.00
2024-05-09T05:26:00.429Z,5.00
2024-05-09T05:26:33.026Z,5.00
2024-05-09T05:27:05.120Z,5.00
2024-05-09T05:27:37.644Z,5.00
2024-05-09T05:28:11.045Z,5.00
2024-05-09T05:28:43.096Z,5.00
2024-05-09T05:29:17.168Z,5.00
2024-05-09T05:29:50.392Z,5.00
2024-05-09T05:30:29.300Z,5.00
2024-05-09T05:31:06.146Z,5.00
2024-05-09T05:31:38.704Z,5.00
2024-05-09T05:32:10.675Z,5.00
2024-05-09T05:32:42.890Z,5.00
2024-05-09T05:33:17.057Z,5.00
2024-05-09T05:33:51.270Z,5.00
2024-05-09T05:34:25.188Z,5.00
2024-05-09T05:34:57.332Z,5.00
2024-05-09T05:35:30.011Z,5.00
2024-05-09T05:36:02.309Z,5.00
2024-05-09T05:36:35.439Z,5.00
2024-05-09T05:37:07.214Z,5.00
2024-05-09T05:37:39.282Z,5.00
2024-05-09T05:38:11.363Z,5.00
2024-05-09T05:38:44.811Z,5.00
2024-05-09T05:39:16.672Z,5.00
2024-05-09T05:39:48.711Z,5.00
2024-05-09T05:40:28.342Z,5.00
2024-05-09T05:41:07.374Z,5.00
2024-05-09T05:41:39.119Z,5.00
2024-05-09T05:42:11.174Z,5.00
2024-05-09T05:42:46.442Z,5.00
2024-05-09T05:43:18.376Z,5.00
2024-05-09T05:43:50.887Z,5.00
2024-05-09T05:44:22.827Z,5.00
2024-05-09T05:44:54.682Z,5.00
2024-05-09T05:45:26.703Z,5.00
2024-05-09T05:45:58.692Z,5.00
2024-05-09T05:46:32.361Z,5.00
2024-05-09T05:47:06.658Z,5.00
2024-05-09T05:47:38.717Z,5.00
2024-05-09T05:48:14.878Z,5.00
2024-05-09T05:48:46.835Z,5.00
2024-05-09T05:49:19.638Z,5.00
2024-05-09T05:49:52.127Z,5.00
2024-05-09T05:50:32.447Z,5.00
2024-05-09T05:51:11.088Z,5.00
2024-05-09T05:51:42.923Z,5.00
2024-05-09T05:52:18.450Z,5.00
2024-05-09T05:52:50.831Z,5.00
2024-05-09T05:53:22.642Z,5.00
2024-05-09T05:53:55.539Z,5.00
2024-05-09T05:54:27.530Z,5.00
2024-05-09T05:54:59.877Z,5.00
2024-05-09T05:55:32.954Z,5.00
2024-05-09T05:56:06.231Z,5.00
2024-05-09T05:56:38.597Z,5.00
2024-05-09T05:57:10.566Z,5.00
2024-05-09T05:57:42.757Z,5.00
2024-05-09T05:58:14.992Z,5.00
2024-05-09T05:58:46.981Z,5.00
2024-05-09T05:59:20.083Z,5.00
2024-05-09T05:59:53.743Z,5.00
2024-05-09T06:00:30.114Z,5.00
2024-05-09T06:01:10.053Z,5.00
2024-05-09T06:01:42.268Z,5.00
2024-05-09T06:02:16.744Z,5.00
2024-05-09T06:02:49.209Z,5.00
2024-05-09T06:03:21.335Z,5.00
2024-05-09T06:03:53.372Z,5.00
2024-05-09T06:04:25.909Z,5.00
2024-05-09T06:04:58.247Z,5.00
2024-05-09T06:05:30.934Z,5.00
2024-05-09T06:06:03.288Z,5.00
2024-05-09T06:06:35.368Z,4.67
2024-05-09T06:07:07.616Z,4.00
2024-05-09T06:07:40.021Z,4.00
2024-05-09T06:08:12.184Z,4.00
2024-05-09T06:08:44.479Z,4.00
2024-05-09T06:09:16.683Z,4.00
2024-05-09T06:09:50.512Z,4.00
2024-05-09T06:10:26.325Z,4.00
2024-05-09T06:11:06.699Z,4.00
2024-05-09T06:11:40.092Z,4.00
2024-05-09T06:12:12.849Z,4.00
2024-05-09T06:13:05.487Z,4.00
2024-05-09T06:13:42.050Z,4.00
2024-05-09T06:14:14.569Z,4.00
2024-05-09T06:14:46.430Z,4.00
2024-05-09T06:15:18.514Z,4.00
2024-05-09T06:15:50.302Z,4.00
2024-05-09T06:16:22.162Z,4.00
2024-05-09T06:16:58.301Z,4.00
2024-05-09T06:17:30.528Z,4.00
2024-05-09T06:18:06.908Z,4.00
2024-05-09T06:18:39.006Z,4.00
2024-05-09T06:19:11.052Z,4.00
2024-05-09T06:19:42.962Z,4.00
2024-05-09T06:20:20.832Z,4.00
2024-05-09T06:20:59.394Z,4.00
2024-05-09T06:21:32.761Z,4.00
2024-05-09T06:22:04.544Z,4.00
2024-05-09T06:22:36.587Z,4.00
2024-05-09T06:23:09.396Z,4.00
2024-05-09T06:23:45.930Z,4.00
2024-05-09T06:24:18.158Z,4.00
2024-05-09T06:24:49.901Z,4.00
2024-05-09T06:25:22.244Z,4.00
2024-05-09T06:25:54.109Z,4.00
2024-05-09T06:26:25.968Z,4.00
2024-05-09T06:26:58.422Z,4.00
2024-05-09T06:27:30.453Z,4.00
2024-05-09T06:28:03.197Z,4.00
2024-05-09T06:28:34.988Z,4.00
2024-05-09T06:29:08.778Z,4.00
2024-05-09T06:29:40.660Z,4.00
2024-05-09T06:30:21.211Z,4.00
2024-05-09T06:31:00.576Z,4.00
2024-05-09T06:31:40.750Z,4.00
2024-05-09T06:32:12.968Z,4.00
2024-05-09T06:32:45.430Z,4.00
2024-05-09T06:33:18.479Z,4.00
2024-05-09T06:33:51.133Z,4.00
2024-05-09T06:34:23.369Z,4.00
2024-05-09T06:34:56.679Z,4.00
2024-05-09T06:35:30.159Z,4.00
2024-05-09T06:36:02.443Z,4.00
2024-05-09T06:36:34.872Z,4.00
2024-05-09T06:37:07.067Z,4.00
2024-05-09T06:37:39.093Z,4.00
2024-05-09T06:38:11.996Z,4.00
2024-05-09T06:38:45.670Z,4.00
2024-05-09T06:39:17.778Z,4.00
2024-05-09T06:39:51.060Z,4.00
2024-05-09T06:40:25.944Z,4.00
2024-05-09T06:41:06.746Z,4.00
2024-05-09T06:41:38.583Z,4.00
2024-05-09T06:42:10.519Z,4.00
2024-05-09T06:42:42.347Z,4.00
2024-05-09T06:43:18.528Z,4.00
2024-05-09T06:43:53.976Z,4.00
2024-05-09T06:44:26.049Z,4.00
2024-05-09T06:44:57.866Z,4.00
2024-05-09T06:45:30.197Z,4.00
2024-05-09T06:46:03.597Z,4.00
2024-05-09T06:46:39.081Z,4.00
2024-05-09T06:47:12.485Z,4.00
2024-05-09T06:47:45.452Z,4.00
2024-05-09T06:48:19.288Z,4.00
2024-05-09T06:48:53.570Z,4.00
2024-05-09T06:49:30.101Z,4.00
2024-05-09T06:50:02.640Z,4.00
2024-05-09T06:50:37.813Z,4.00
2024-05-09T06:51:11.676Z,4.00
2024-05-09T06:51:43.645Z,4.00
2024-05-09T06:52:16.386Z,4.00
2024-05-09T06:52:48.255Z,4.00
2024-05-09T06:53:25.153Z,4.00
2024-05-09T06:53:58.461Z,4.00
2024-05-09T06:54:30.310Z,3.00
2024-05-09T06:55:02.259Z,3.00
2024-05-09T06:55:37.787Z,3.00
2024-05-09T06:56:10.242Z,3.00
2024-05-09T06:56:42.197Z,3.00
2024-05-09T06:57:14.207Z,3.00
2024-05-09T06:57:46.264Z,3.00
2024-05-09T06:58:22.354Z,3.00
2024-05-09T06:58:56.422Z,3.00
2024-05-09T06:59:29.871Z,3.00
2024-05-09T07:00:08.201Z,3.00
2024-05-09T07:00:42.535Z,3.00
2024-05-09T07:01:14.510Z,3.00
2024-05-09T07:01:47.111Z,3.00
2024-05-09T07:02:20.333Z,3.00
2024-05-09T07:02:52.406Z,3.00
2024-05-09T07:03:25.166Z,3.00
2024-05-09T07:03:58.105Z,3.00
2024-05-09T07:04:31.253Z,3.00
2024-05-09T07:05:04.489Z,3.00
2024-05-09T07:05:37.167Z,3.00
2024-05-09T07:06:09.185Z,3.00
2024-05-09T07:06:42.351Z,3.00
2024-05-09T07:07:14.400Z,3.00
2024-05-09T07:07:46.315Z,3.00
2024-05-09T07:08:19.095Z,3.00
2024-05-09T07:08:52.560Z,3.00
2024-05-09T07:09:24.644Z,3.00
2024-05-09T07:09:56.490Z,2.67
2024-05-09T07:10:34.154Z,2.00
2024-05-09T07:11:07.840Z,2.00
2024-05-09T07:11:40.250Z,2.00
2024-05-09T07:12:12.339Z,2.00
2024-05-09T07:12:45.744Z,2.00
2024-05-09T07:13:18.544Z,2.00
2024-05-09T07:13:50.867Z,2.00
2024-05-09T07:14:22.828Z,2.00
2024-05-09T07:14:56.324Z,2.00
2024-05-09T07:15:29.206Z,2.00
2024-05-09T07:16:01.358Z,2.00
2024-05-09T07:16:33.172Z,2.00
2024-05-09T07:17:10.864Z,2.00
2024-05-09T07:17:43.182Z,2.00
2024-05-09T07:18:17.170Z,2.00
2024-05-09T07:18:53.843Z,2.00
2024-05-09T07:19:26.035Z,2.00
2024-05-09T07:20:01.111Z,2.00
2024-05-09T07:20:35.249Z,2.00
2024-05-09T07:21:09.243Z,2.00
2024-05-09T07:21:41.146Z,2.00
2024-05-09T07:22:12.977Z,2.00
2024-05-09T07:23:08.732Z,2.00
2024-05-09T07:23:41.411Z,2.00
2024-05-09T07:24:14.738Z,2.00
2024-05-09T07:24:46.849Z,2.00
2024-05-09T07:25:18.969Z,2.00
2024-05-09T07:25:50.868Z,2.00
2024-05-09T07:26:22.773Z,2.00
2024-05-09T07:26:55.411Z,2.00